createdAt,value
2018-10-02T00:01:02.554Z,2.00
2018-10-02T00:03:30.791Z,1.90
2018-10-02T00:05:58.963Z,2.00
2018-10-02T00:08:27.133Z,1.73
2018-10-02T00:11:00.709Z,2.10
2018-10-02T00:13:34.315Z,1.90
2018-10-02T00:16:02.488Z,1.50
2018-10-02T00:18:30.670Z,2.17
2018-10-02T00:20:58.833Z,2.30
2018-10-02T00:23:26.995Z,2.60
2018-10-02T00:25:55.178Z,2.00
2018-10-02T00:28:23.383Z,2.17
2018-10-02T00:30:51.575Z,2.17
2018-10-02T00:33:19.756Z,2.13
2018-10-02T00:35:47.919Z,2.20
2018-10-02T00:38:16.086Z,1.70
2018-10-02T00:40:44.275Z,1.90
2018-10-02T00:43:12.441Z,1.60
2018-10-02T00:45:40.587Z,2.40
2018-10-02T00:48:08.793Z,2.77
2018-10-02T00:50:36.973Z,2.00
2018-10-02T00:53:05.127Z,2.60
2018-10-02T00:55:33.283Z,2.20
2018-10-02T00:58:01.451Z,2.47
2018-10-02T01:00:29.635Z,2.40
2018-10-02T01:02:57.810Z,2.10
2018-10-02T01:05:26.042Z,3.00
2018-10-02T01:07:54.241Z,2.87
2018-10-02T01:10:22.413Z,2.57
2018-10-02T01:12:50.793Z,2.53
2018-10-02T01:15:18.966Z,2.70
2018-10-02T01:17:47.114Z,2.73
2018-10-02T01:20:15.306Z,3.77
2018-10-02T01:22:43.543Z,3.30
2018-10-02T01:25:11.723Z,2.40
2018-10-02T01:27:39.894Z,3.93
2018-10-02T01:30:08.067Z,3.57
2018-10-02T01:32:36.448Z,3.40
2018-10-02T01:35:04.695Z,3.57
2018-10-02T01:37:32.854Z,3.67
2018-10-02T01:40:01.022Z,3.80
2018-10-02T01:42:29.185Z,3.73
2018-10-02T01:44:57.341Z,2.53
2018-10-02T01:47:25.518Z,3.57
2018-10-02T01:49:53.666Z,3.80
2018-10-02T01:52:21.846Z,3.53
2018-10-02T01:54:49.996Z,4.07
2018-10-02T01:57:18.356Z,3.90
2018-10-02T01:59:46.518Z,3.50
2018-10-02T02:02:14.699Z,3.57
2018-10-02T02:04:42.847Z,4.00
2018-10-02T02:07:11.157Z,3.40
2018-10-02T02:09:39.303Z,3.57
2018-10-02T02:12:07.482Z,3.70
2018-10-02T02:14:35.643Z,3.53
2018-10-02T02:17:03.859Z,3.33
2018-10-02T02:19:32.032Z,3.37
2018-10-02T02:22:00.219Z,3.27
2018-10-02T02:24:28.445Z,3.53
2018-10-02T02:26:56.721Z,3.80
2018-10-02T02:29:24.852Z,3.30
2018-10-02T02:31:53.037Z,3.20
2018-10-02T02:34:21.194Z,3.47
2018-10-02T02:36:49.374Z,3.50
2018-10-02T02:39:17.540Z,3.10
2018-10-02T02:41:45.682Z,3.37
2018-10-02T02:44:13.887Z,2.87
2018-10-02T02:46:42.068Z,3.07
2018-10-02T02:49:15.830Z,3.30
2018-10-02T02:51:43.998Z,3.87
2018-10-02T02:54:12.157Z,3.60
2018-10-02T02:56:40.334Z,2.80
2018-10-02T02:59:08.691Z,2.80
2018-10-02T03:01:36.851Z,3.07
2018-10-02T03:04:05.030Z,3.30
2018-10-02T03:06:33.212Z,2.93
2018-10-02T03:09:01.392Z,3.50
2018-10-02T03:11:29.547Z,3.37
2018-10-02T03:13:57.725Z,2.97
2018-10-02T03:16:25.875Z,3.30
2018-10-02T03:18:54.080Z,3.20
2018-10-02T03:21:22.244Z,2.80
2018-10-02T03:23:50.402Z,3.40
2018-10-02T03:26:18.589Z,3.00
2018-10-02T03:28:46.761Z,3.17
2018-10-02T03:31:14.906Z,2.80
2018-10-02T03:33:43.052Z,2.40
2018-10-02T03:36:11.262Z,2.40
2018-10-02T03:38:39.406Z,2.57
2018-10-02T03:41:07.578Z,2.37
2018-10-02T03:43:35.783Z,2.43
2018-10-02T03:46:03.969Z,2.40
2018-10-02T03:48:32.113Z,2.40
2018-10-02T03:51:00.298Z,2.20
2018-10-02T03:53:28.492Z,3.03
2018-10-02T03:55:56.642Z,2.30
2018-10-02T03:58:24.802Z,1.73
2018-10-02T04:00:53.077Z,2.60
2018-10-02T04:03:21.267Z,2.57
2018-10-02T04:05:49.502Z,2.87
2018-10-02T04:08:17.647Z,2.77
2018-10-02T04:10:45.865Z,2.43
2018-10-02T04:13:14.018Z,2.43
2018-10-02T04:15:42.235Z,2.73
2018-10-02T04:18:10.418Z,3.40
2018-10-02T04:20:38.651Z,4.47
2018-10-02T04:23:06.757Z,2.83
2018-10-02T04:25:34.903Z,4.20
2018-10-02T04:28:03.103Z,3.80
2018-10-02T04:30:31.276Z,3.13
2018-10-02T04:32:59.543Z,4.77
2018-10-02T04:35:27.692Z,4.43
2018-10-02T04:37:55.873Z,4.90
2018-10-02T04:40:24.029Z,4.73
2018-10-02T04:42:52.288Z,5.23
2018-10-02T04:45:20.466Z,5.40
2018-10-02T04:47:52.309Z,4.43
2018-10-02T04:50:20.670Z,4.50
2018-10-02T04:52:48.834Z,4.83
2018-10-02T04:55:17.107Z,4.80
2018-10-02T04:57:45.361Z,4.57
2018-10-02T05:00:13.575Z,4.90
2018-10-02T05:02:41.725Z,4.83
2018-10-02T05:05:09.905Z,4.67
2018-10-02T05:07:38.218Z,3.60
2018-10-02T05:10:06.395Z,4.30
2018-10-02T05:12:34.564Z,5.17
2018-10-02T05:15:02.803Z,4.53
2018-10-02T05:17:30.970Z,3.77
2018-10-02T05:19:59.171Z,4.93
2018-10-02T05:22:27.331Z,4.50
2018-10-02T05:24:55.592Z,4.57
2018-10-02T05:27:24.102Z,3.47
2018-10-02T05:29:52.310Z,4.37
2018-10-02T05:32:20.552Z,4.07
2018-10-02T05:34:48.763Z,5.03
2018-10-02T05:37:16.940Z,4.00
2018-10-02T05:39:45.101Z,3.60
2018-10-02T05:42:13.266Z,3.07
2018-10-02T05:44:41.454Z,4.87
2018-10-02T05:47:09.613Z,5.43
2018-10-02T05:49:37.767Z,4.30
2018-10-02T05:52:05.908Z,4.07
2018-10-02T05:54:34.076Z,4.62
2018-10-02T05:57:02.225Z,4.90
2018-10-02T05:59:30.380Z,4.87
2018-10-02T06:01:58.636Z,4.80
2018-10-02T06:04:26.799Z,4.07
2018-10-02T06:06:54.992Z,4.17
2018-10-02T06:09:23.184Z,4.37
2018-10-02T06:11:51.345Z,4.50
2018-10-02T06:14:19.520Z,3.37
2018-10-02T06:16:47.718Z,3.50
2018-10-02T06:19:15.883Z,4.10
2018-10-02T06:21:44.039Z,3.20
2018-10-02T06:24:12.210Z,4.10
2018-10-02T06:26:40.395Z,3.17
2018-10-02T06:29:08.576Z,3.90
2018-10-02T06:31:36.735Z,3.77
2018-10-02T06:34:04.923Z,4.20
2018-10-02T06:36:33.434Z,3.80
2018-10-02T06:39:01.731Z,3.63
2018-10-02T06:41:29.834Z,3.67
2018-10-02T06:43:58.047Z,4.00
2018-10-02T06:46:26.220Z,2.97
2018-10-02T06:48:54.407Z,3.47
2018-10-02T06:51:22.744Z,3.63
2018-10-02T06:53:50.892Z,3.67
2018-10-02T06:56:19.503Z,3.63
2018-10-02T06:58:47.694Z,3.20
2018-10-02T07:01:15.893Z,3.00
2018-10-02T07:03:44.068Z,3.20
2018-10-02T07:06:12.270Z,3.13
2018-10-02T07:08:40.481Z,3.27
2018-10-02T07:11:08.742Z,4.07
2018-10-02T07:13:36.979Z,3.20
2018-10-02T07:16:05.287Z,3.23
2018-10-02T07:18:33.605Z,4.00
2018-10-02T07:21:01.993Z,3.72
2018-10-02T07:23:30.130Z,4.07
2018-10-02T07:25:58.302Z,3.20
2018-10-02T07:28:26.561Z,3.40
2018-10-02T07:30:54.967Z,3.53
2018-10-02T07:33:23.090Z,3.00
2018-10-02T07:35:51.309Z,3.37
2018-10-02T07:38:19.542Z,3.67
2018-10-02T07:40:47.728Z,3.20
2018-10-02T07:43:15.906Z,3.23
2018-10-02T07:45:44.174Z,4.07
2018-10-02T07:48:12.450Z,3.03
2018-10-02T07:50:40.904Z,3.70
2018-10-02T07:53:09.277Z,3.60
2018-10-02T07:55:37.514Z,3.83
2018-10-02T07:58:05.981Z,3.37
2018-10-02T08:00:34.242Z,4.07
2018-10-02T08:03:02.558Z,3.30
2018-10-02T08:05:30.722Z,4.17
2018-10-02T08:07:58.991Z,3.87
2018-10-02T08:10:27.170Z,3.80
2018-10-02T08:12:55.354Z,3.90
2018-10-02T08:15:23.592Z,3.90
2018-10-02T08:17:51.777Z,2.70
2018-10-02T08:20:19.918Z,4.03
2018-10-02T08:22:48.343Z,3.43
2018-10-02T08:25:16.543Z,3.70
2018-10-02T08:27:44.890Z,3.70
2018-10-02T08:30:13.105Z,3.33
2018-10-02T08:32:41.302Z,3.67
2018-10-02T08:35:09.660Z,3.23
2018-10-02T08:37:37.908Z,3.20
2018-10-02T08:40:06.051Z,3.67
2018-10-02T08:42:34.218Z,3.57
2018-10-02T08:45:03.704Z,3.23
2018-10-02T08:47:31.946Z,3.47
2018-10-02T08:50:00.080Z,3.83
2018-10-02T08:52:28.490Z,2.90
2018-10-02T08:54:56.647Z,3.07
2018-10-02T08:57:25.792Z,3.83
2018-10-02T08:59:53.951Z,3.20
2018-10-02T09:02:22.146Z,3.63
2018-10-02T09:04:50.314Z,3.10
2018-10-02T09:07:18.527Z,3.43
2018-10-02T09:09:46.678Z,3.40
2018-10-02T09:12:15.262Z,3.60
2018-10-02T09:14:43.866Z,3.40
2018-10-02T09:17:12.037Z,3.52
2018-10-02T09:19:40.232Z,3.67
2018-10-02T09:22:08.626Z,4.30
2018-10-02T09:24:36.836Z,3.83
2018-10-02T09:27:05.154Z,3.63
2018-10-02T09:29:33.414Z,4.30
2018-10-02T09:32:07.009Z,5.37
2018-10-02T09:34:40.714Z,4.30
2018-10-02T09:37:14.511Z,4.40
2018-10-02T09:39:48.108Z,4.70
2018-10-02T09:42:21.708Z,4.83
2018-10-02T09:44:50.067Z,5.40
2018-10-02T09:47:18.239Z,5.07
2018-10-02T09:49:49.554Z,5.17
2018-10-02T09:52:17.708Z,4.20
2018-10-02T09:54:46.263Z,5.27
2018-10-02T09:57:14.404Z,6.07
2018-10-02T09:59:42.579Z,4.20
2018-10-02T10:02:15.206Z,4.10
2018-10-02T10:04:43.377Z,4.70
2018-10-02T10:07:11.710Z,4.17
2018-10-02T10:09:39.878Z,4.60
2018-10-02T10:12:08.052Z,4.77
2018-10-02T10:14:36.243Z,4.97
2018-10-02T10:17:04.440Z,4.30
2018-10-02T10:19:32.566Z,5.43
2018-10-02T10:22:00.809Z,6.60
2018-10-02T10:24:29.024Z,5.97
2018-10-02T10:26:57.194Z,5.90
2018-10-02T10:29:25.371Z,5.50
2018-10-02T10:31:53.522Z,5.50
2018-10-02T10:34:21.711Z,6.25
2018-10-02T10:36:49.854Z,7.12
2018-10-02T10:39:18.069Z,6.00
2018-10-02T10:41:46.238Z,8.73
2018-10-02T10:44:14.413Z,7.35
2018-10-02T10:46:42.573Z,7.50
2018-10-02T10:49:10.759Z,6.05
2018-10-02T10:51:39.011Z,7.77
2018-10-02T10:54:07.170Z,7.92
2018-10-02T10:56:35.420Z,8.13
2018-10-02T10:59:03.554Z,7.17
2018-10-02T11:01:32.282Z,7.12
2018-10-02T11:04:00.447Z,7.40
2018-10-02T11:06:28.723Z,7.65
2018-10-02T11:08:56.924Z,8.15
2018-10-02T11:11:25.077Z,8.50
2018-10-02T11:13:53.266Z,7.87
2018-10-02T11:16:21.423Z,8.18
2018-10-02T11:18:49.625Z,8.25
2018-10-02T11:21:17.857Z,8.88
2018-10-02T11:23:46.068Z,7.20
2018-10-02T11:26:14.302Z,9.65
2018-10-02T11:28:42.459Z,8.63
2018-10-02T11:31:10.667Z,9.68
2018-10-02T11:33:38.863Z,8.60
2018-10-02T11:36:07.096Z,8.80
2018-10-02T11:38:35.307Z,8.50
2018-10-02T11:41:03.496Z,9.30
2018-10-02T11:43:31.755Z,8.43
2018-10-02T11:45:59.923Z,9.45
2018-10-02T11:48:28.098Z,9.88
2018-10-02T11:50:56.364Z,9.70
2018-10-02T11:53:24.508Z,9.33
2018-10-02T11:55:52.792Z,8.95
2018-10-02T11:58:20.853Z,8.83
2018-10-02T12:00:49.107Z,10.90
2018-10-02T12:03:17.218Z,9.10
2018-10-02T12:05:45.437Z,9.58
2018-10-02T12:08:13.665Z,9.75
2018-10-02T12:10:41.878Z,9.50
2018-10-02T12:13:10.102Z,9.43
2018-10-02T12:15:38.887Z,9.73
2018-10-02T12:18:07.099Z,9.70
2018-10-02T12:20:35.307Z,10.75
2018-10-02T12:23:03.476Z,9.73
2018-10-02T12:25:31.716Z,10.43
2018-10-02T12:27:59.952Z,10.68
2018-10-02T12:30:28.147Z,9.90
2018-10-02T12:32:56.323Z,10.00
2018-10-02T12:35:24.533Z,9.13
2018-10-02T12:37:52.887Z,9.80
2018-10-02T12:40:21.195Z,8.30
2018-10-02T12:42:49.362Z,9.15
2018-10-02T12:45:17.593Z,8.60
2018-10-02T12:47:45.800Z,7.72
2018-10-02T12:50:13.991Z,8.30
2018-10-02T12:52:42.397Z,7.15
2018-10-02T12:55:10.489Z,7.53
2018-10-02T12:57:38.659Z,7.05
2018-10-02T13:00:06.863Z,6.42
2018-10-02T13:02:35.055Z,6.62
2018-10-02T13:05:03.207Z,6.08
2018-10-02T13:07:31.490Z,4.40
2018-10-02T13:09:59.731Z,6.35
2018-10-02T13:12:27.929Z,4.92
2018-10-02T13:14:56.147Z,5.10
2018-10-02T13:17:24.342Z,5.72
2018-10-02T13:19:52.524Z,6.25
2018-10-02T13:22:20.699Z,6.40
2018-10-02T13:24:48.933Z,6.00
2018-10-02T13:27:17.131Z,5.80
2018-10-02T13:29:45.432Z,5.80
2018-10-02T13:32:13.717Z,6.17
2018-10-02T13:34:41.861Z,7.20
2018-10-02T13:37:10.387Z,6.62
2018-10-02T13:39:38.559Z,7.90
2018-10-02T13:42:06.754Z,6.72
2018-10-02T13:44:34.975Z,6.72
2018-10-02T13:47:03.154Z,7.12
2018-10-02T13:49:31.370Z,8.65
2018-10-02T13:51:59.546Z,7.08
2018-10-02T13:54:27.722Z,9.65
2018-10-02T13:56:55.927Z,8.50
2018-10-02T13:59:24.143Z,10.58
2018-10-02T14:01:52.370Z,9.65
2018-10-02T14:04:20.591Z,8.98
2018-10-02T14:06:49.039Z,8.05
2018-10-02T14:09:17.999Z,8.68
2018-10-02T14:11:46.356Z,9.68
2018-10-02T14:14:14.663Z,7.12
2018-10-02T14:16:43.035Z,10.98
2018-10-02T14:19:11.463Z,10.15
2018-10-02T14:21:40.188Z,10.48
2018-10-02T14:24:08.850Z,10.72
2018-10-02T14:26:37.260Z,8.45
2018-10-02T14:29:06.423Z,10.50
2018-10-02T14:31:35.667Z,10.60
2018-10-02T14:34:04.009Z,9.78
2018-10-02T14:36:32.406Z,10.98
2018-10-02T14:39:01.020Z,12.55
2018-10-02T14:41:29.501Z,11.60
2018-10-02T14:43:58.081Z,11.08
2018-10-02T14:46:26.470Z,9.80
2018-10-02T14:48:55.085Z,11.08
2018-10-02T14:51:23.830Z,11.22
2018-10-02T14:53:52.435Z,9.55
2018-10-02T14:56:20.931Z,9.88
2018-10-02T14:58:49.235Z,11.33
2018-10-02T15:01:17.443Z,9.73
2018-10-02T15:03:45.782Z,11.75
2018-10-02T15:06:14.026Z,10.03
2018-10-02T15:08:42.296Z,10.43
2018-10-02T15:11:10.560Z,10.32
2018-10-02T15:13:39.696Z,10.65
2018-10-02T15:16:08.062Z,8.73
2018-10-02T15:18:36.424Z,9.28
2018-10-02T15:21:04.838Z,9.90
2018-10-02T15:23:33.359Z,9.78
2018-10-02T15:26:01.681Z,10.45
2018-10-02T15:28:29.936Z,9.40
2018-10-02T15:30:58.218Z,8.88
2018-10-02T15:33:26.788Z,8.75
2018-10-02T15:35:55.019Z,9.83
2018-10-02T15:38:23.358Z,8.53
2018-10-02T15:40:51.615Z,8.30
2018-10-02T15:43:19.787Z,8.03
2018-10-02T15:45:48.059Z,7.95
2018-10-02T15:48:16.396Z,8.60
2018-10-02T15:50:44.696Z,7.25
2018-10-02T15:53:12.996Z,7.72
2018-10-02T15:55:41.186Z,6.83
2018-10-02T15:58:09.592Z,5.75
2018-10-02T16:00:37.820Z,5.90
2018-10-02T16:03:06.179Z,5.92
2018-10-02T16:05:34.563Z,5.15
2018-10-02T16:08:02.753Z,5.85
2018-10-02T16:10:30.980Z,6.03
2018-10-02T16:12:59.494Z,5.85
2018-10-02T16:15:27.721Z,5.37
2018-10-02T16:17:55.911Z,4.70
2018-10-02T16:20:24.031Z,5.03
2018-10-02T16:22:52.656Z,4.30
2018-10-02T16:25:21.109Z,3.80
2018-10-02T16:27:49.651Z,4.12
2018-10-02T16:30:17.724Z,4.42
2018-10-02T16:32:45.887Z,3.62
2018-10-02T16:35:14.072Z,2.90
2018-10-02T16:37:42.242Z,2.70
2018-10-02T16:40:10.430Z,2.58
2018-10-02T16:42:38.654Z,2.52
2018-10-02T16:45:06.967Z,1.98
2018-10-02T16:47:35.189Z,12.30
2018-10-02T16:50:03.524Z,5.28
2018-10-02T16:52:31.802Z,3.17
2018-10-02T16:55:00.104Z,2.55
2018-10-02T16:57:28.474Z,1.90
2018-10-02T16:59:56.732Z,1.92
2018-10-02T17:02:25.228Z,1.85
2018-10-02T17:04:53.531Z,1.60
2018-10-02T17:07:21.819Z,1.62
2018-10-02T17:09:50.176Z,2.20
2018-10-02T17:12:18.522Z,2.55
2018-10-02T17:14:47.649Z,1.92
2018-10-02T17:17:15.854Z,1.75
2018-10-02T17:19:44.038Z,1.72
2018-10-02T17:22:12.369Z,1.80
2018-10-02T17:24:40.699Z,2.60
2018-10-02T17:27:08.889Z,2.05
2018-10-02T17:29:37.096Z,2.35
2018-10-02T17:32:05.377Z,1.67
2018-10-02T17:34:33.629Z,2.27
2018-10-02T17:37:02.005Z,1.50
2018-10-02T17:39:30.270Z,1.70
2018-10-02T17:41:58.646Z,1.77
2018-10-02T17:44:27.015Z,2.15
2018-10-02T17:46:57.836Z,2.40
2018-10-02T17:49:26.015Z,2.27
2018-10-02T17:51:54.336Z,1.90
2018-10-02T17:54:22.615Z,2.02
2018-10-02T17:56:50.859Z,1.47
2018-10-02T17:59:19.125Z,2.05
2018-10-02T18:01:47.315Z,2.10
2018-10-02T18:04:15.554Z,1.55
2018-10-02T18:06:43.930Z,2.10
2018-10-02T18:09:12.209Z,1.92
2018-10-02T18:11:40.418Z,1.80
2018-10-02T18:14:08.723Z,1.57
2018-10-02T18:16:37.224Z,2.15
2018-10-02T18:19:05.455Z,1.90
2018-10-02T18:21:33.700Z,2.00
2018-10-02T18:24:01.921Z,2.20
2018-10-02T18:26:30.999Z,1.90
2018-10-02T18:28:59.234Z,2.08
2018-10-02T18:31:27.509Z,2.20
2018-10-02T18:33:56.683Z,2.40
2018-10-02T18:36:25.148Z,2.87
2018-10-02T18:38:53.519Z,1.77
2018-10-02T18:41:21.771Z,2.40
2018-10-02T18:43:49.983Z,3.10
2018-10-02T18:46:18.152Z,2.27
2018-10-02T18:48:46.416Z,2.20
2018-10-02T18:51:14.766Z,2.10
2018-10-02T18:53:44.438Z,1.87
2018-10-02T18:56:12.765Z,1.62
2018-10-02T18:58:40.955Z,3.42
2018-10-02T19:01:09.251Z,3.55
2018-10-02T19:03:37.575Z,2.60
2018-10-02T19:06:05.840Z,1.95
2018-10-02T19:08:41.192Z,2.02
2018-10-02T19:11:14.904Z,2.30
2018-10-02T19:13:43.073Z,2.08
2018-10-02T19:16:16.749Z,2.92
2018-10-02T19:18:45.765Z,2.25
2018-10-02T19:21:23.512Z,1.98
2018-10-02T19:23:51.892Z,2.98
2018-10-02T19:26:21.639Z,1.80
2018-10-02T19:28:50.213Z,2.35
2018-10-02T19:31:24.080Z,2.90
2018-10-02T19:33:54.679Z,2.85
2018-10-02T19:36:23.152Z,2.58
2018-10-02T19:39:16.075Z,2.52
2018-10-02T19:41:45.957Z,2.02
2018-10-02T19:44:14.483Z,3.40
2018-10-02T19:46:48.920Z,2.37
2018-10-02T19:49:19.380Z,3.22
2018-10-02T19:51:53.774Z,2.45
2018-10-02T19:54:23.252Z,1.98
2018-10-02T19:56:51.652Z,3.12
2018-10-02T19:59:20.237Z,2.98
2018-10-02T20:01:48.699Z,3.77
2018-10-02T20:04:17.164Z,4.50
2018-10-02T20:06:45.371Z,2.87
2018-10-02T20:09:13.616Z,3.62
2018-10-02T20:11:42.089Z,3.70
2018-10-02T20:14:11.087Z,2.98
2018-10-02T20:16:39.634Z,3.75
2018-10-02T20:19:08.012Z,3.35
2018-10-02T20:21:36.373Z,3.22
2018-10-02T20:24:04.497Z,3.17
2018-10-02T20:26:32.859Z,2.87
2018-10-02T20:29:02.876Z,3.47
2018-10-02T20:31:33.624Z,3.33
2018-10-02T20:34:01.960Z,2.72
2018-10-02T20:36:30.348Z,3.15
2018-10-02T20:38:58.470Z,3.62
2018-10-02T20:41:26.679Z,3.15
2018-10-02T20:43:54.891Z,3.52
2018-10-02T20:46:23.078Z,2.87
2018-10-02T20:48:51.323Z,2.95
2018-10-02T20:51:19.463Z,4.65
2018-10-02T20:53:47.673Z,2.90
2018-10-02T20:56:15.953Z,2.92
2018-10-02T20:58:44.158Z,3.12
2018-10-02T21:01:12.339Z,2.72
2018-10-02T21:03:40.524Z,2.70
2018-10-02T21:06:08.738Z,3.02
2018-10-02T21:08:37.067Z,3.75
2018-10-02T21:11:05.356Z,3.10
2018-10-02T21:13:33.515Z,2.58
2018-10-02T21:16:01.688Z,2.27
2018-10-02T21:18:29.883Z,1.90
2018-10-02T21:20:58.075Z,2.90
2018-10-02T21:23:27.094Z,2.55
2018-10-02T21:25:55.668Z,2.62
2018-10-02T21:28:24.002Z,3.05
2018-10-02T21:30:52.265Z,2.87
2018-10-02T21:33:20.463Z,2.62
2018-10-02T21:35:48.655Z,2.95
2018-10-02T21:38:16.931Z,3.00
2018-10-02T21:40:45.141Z,2.80
2018-10-02T21:43:13.481Z,3.12
2018-10-02T21:45:41.735Z,2.45
2018-10-02T21:48:10.139Z,3.35
2018-10-02T21:50:38.355Z,3.42
2018-10-02T21:53:06.575Z,3.30
2018-10-02T21:55:34.756Z,2.87
2018-10-02T21:58:02.942Z,2.85
2018-10-02T22:00:32.251Z,2.42
2018-10-02T22:03:00.410Z,3.52
2018-10-02T22:05:28.772Z,2.75
2018-10-02T22:07:57.007Z,3.08
2018-10-02T22:10:25.222Z,2.33
2018-10-02T22:12:53.423Z,3.10
2018-10-02T22:15:21.664Z,2.60
2018-10-02T22:17:49.824Z,2.47
2018-10-02T22:20:18.001Z,3.08
2018-10-02T22:22:46.185Z,2.90
2018-10-02T22:25:14.474Z,2.95
2018-10-02T22:27:42.658Z,3.30
2018-10-02T22:30:12.207Z,3.02
2018-10-02T22:32:40.426Z,3.00
2018-10-02T22:35:08.625Z,2.40
2018-10-02T22:37:36.964Z,2.20
2018-10-02T22:40:05.200Z,1.98
2018-10-02T22:42:33.379Z,2.72
2018-10-02T22:45:01.569Z,2.85
2018-10-02T22:47:29.763Z,2.90
2018-10-02T22:49:58.031Z,2.90
2018-10-02T22:52:26.359Z,3.47
2018-10-02T22:54:54.642Z,2.60
2018-10-02T22:57:22.844Z,3.08
2018-10-02T22:59:51.183Z,3.45
2018-10-02T23:02:19.407Z,4.15
2018-10-02T23:04:47.590Z,3.40
2018-10-02T23:07:15.774Z,3.33
2018-10-02T23:09:43.973Z,3.08
2018-10-02T23:12:12.158Z,3.08
2018-10-02T23:14:40.331Z,3.40
2018-10-02T23:17:08.498Z,3.10
2018-10-02T23:19:36.670Z,3.08
2018-10-02T23:22:04.896Z,3.45
2018-10-02T23:24:33.066Z,3.40
2018-10-02T23:27:01.243Z,3.42
2018-10-02T23:29:29.414Z,3.42
2018-10-02T23:31:57.681Z,3.10
2018-10-02T23:34:25.826Z,2.22
2018-10-02T23:36:54.010Z,2.98
2018-10-02T23:39:22.159Z,3.00
2018-10-02T23:41:50.330Z,3.58
2018-10-02T23:44:18.490Z,2.98
2018-10-02T23:46:46.747Z,3.65
2018-10-02T23:49:14.971Z,2.55
2018-10-02T23:51:43.147Z,3.62
2018-10-02T23:54:11.327Z,2.52
2018-10-02T23:56:39.491Z,2.65
2018-10-02T23:59:09.509Z,2.08
